Oneiro — SVA3427 — position and weather

sailwx.info

Track history (hours):
 
Tides and Currents Weather Stations Pressure Air Temp Water Temp Dewpoint Dewpoint Depression Visibility Wind Speed Wind Dir Waves Ship Positions

Oneiro

Last reported at 2016-Jun-24 04:33 UTC. Time now 2016-Jun-25 07:04 UTC.
Position N 37°09' E 025°15'.

Length 53 m; draft 3 m.

Type: Pleasure craft. MMSI: 241024000.

Date/timePositionNaut miles runAvg speedWind from/ knotsBaromVisibWave heightAir tempDewpointWater temp
2016-Jun-24 04:33N 37°09' E 025°15'2 1.7
2016-Jun-24 03:33N 37°08' E 025°13'0 0.0
2016-Jun-24 02:33N 37°08' E 025°13'0 0.0
2016-Jun-24 01:33N 37°08' E 025°13'0 0.0
2016-Jun-24 00:33N 37°08' E 025°13'0 0.0
2016-Jun-23 23:33N 37°08' E 025°13'0 0.0
2016-Jun-23 22:33N 37°08' E 025°13'0 0.0
2016-Jun-23 21:33N 37°08' E 025°13'0 0.0
2016-Jun-23 20:33N 37°08' E 025°13'0 0.0
2016-Jun-23 19:33N 37°08' E 025°13'0 0.0
2016-Jun-23 18:33N 37°08' E 025°13'0 0.0
2016-Jun-23 17:34N 37°08' E 025°13'0 0.0
2016-Jun-23 16:33N 37°08' E 025°13'1110.7
2016-Jun-23 15:33N 37°18' E 025°15'5 0.8
2016-Jun-23 09:25N 37°23' E 025°14'1 1.4
2016-Jun-23 08:33N 37°23' E 025°16'0 0.0
2016-Jun-23 07:33N 37°23' E 025°16'4 2.0
2016-Jun-23 05:32N 37°27' E 025°18'71 3.5
2016-Jun-22 09:33N 37°43' E 023°51'1211.8
2016-Jun-22 08:33N 37°53' E 023°43'0 0.1
2016-Jun-22 07:33N 37°53' E 023°43'0 0.0
2016-Jun-22 06:33N 37°53' E 023°43'0 0.0
2016-Jun-22 05:33N 37°53' E 023°43'0 0.0
2016-Jun-22 04:33N 37°53' E 023°43'0 0.0
2016-Jun-22 03:33N 37°53' E 023°43'0 0.0
2016-Jun-22 02:33N 37°53' E 023°43'0 0.0
2016-Jun-22 01:33N 37°53' E 023°43'0 0.0
2016-Jun-22 00:33N 37°53' E 023°43'0 0.0
2016-Jun-21 23:33N 37°53' E 023°43'0 0.0
2016-Jun-21 22:33N 37°53' E 023°43'0 0.0
2016-Jun-21 21:33N 37°53' E 023°43'0 0.0
2016-Jun-21 20:33N 37°53' E 023°43'0 0.0
2016-Jun-21 19:33N 37°53' E 023°43'0 0.0
2016-Jun-21 18:33N 37°53' E 023°43'0 0.0
2016-Jun-21 17:33N 37°53' E 023°43'0 0.0
2016-Jun-21 16:33N 37°53' E 023°43'0 0.0
2016-Jun-21 15:33N 37°53' E 023°43'0 0.0
2016-Jun-21 14:33N 37°53' E 023°43'0 0.0
2016-Jun-21 13:33N 37°53' E 023°43'0 0.0
2016-Jun-21 12:33N 37°53' E 023°43'0 0.0
2016-Jun-21 11:33N 37°53' E 023°43'0 0.0
2016-Jun-21 10:33N 37°53' E 023°43'0 0.0
2016-Jun-21 09:33N 37°53' E 023°43'0 0.0
2016-Jun-21 08:33N 37°53' E 023°43'0 0.0
2016-Jun-21 07:33N 37°53' E 023°43'3210.7
2016-Jun-21 04:33N 37°23' E 023°29'2 1.9
2016-Jun-21 03:33N 37°21' E 023°28'0 0.0
2016-Jun-21 02:33N 37°21' E 023°28'0 0.0
2016-Jun-21 01:33N 37°21' E 023°28'0 0.0
2016-Jun-21 00:33N 37°21' E 023°28'0 0.0
2016-Jun-20 23:33N 37°21' E 023°28'0 0.0
2016-Jun-20 22:32N 37°21' E 023°28'0 0.0
2016-Jun-20 21:32N 37°21' E 023°28'0 0.0
2016-Jun-20 20:33N 37°21' E 023°28'0 0.0
2016-Jun-20 19:33N 37°21' E 023°28'0 0.0
2016-Jun-20 18:33N 37°21' E 023°28'0 0.0
2016-Jun-20 17:33N 37°21' E 023°28'0 0.0
2016-Jun-20 16:33N 37°21' E 023°28'0 0.0
2016-Jun-20 15:32N 37°21' E 023°28'0 0.0
2016-Jun-20 14:33N 37°21' E 023°28'9 1.1
2016-Jun-20 06:27N 37°13' E 023°32'64 2.4
2016-Jun-19 03:30N 37°11' E 024°53'15 0.4
2016-Jun-17 15:11N 37°23' E 025°03'813.3
2016-Jun-17 14:33N 37°21' E 025°13'7 6.7
2016-Jun-17 13:33N 37°25' E 025°21'0 0.0
2016-Jun-17 12:24N 37°25' E 025°21'0 0.0
2016-Jun-17 11:33N 37°25' E 025°21'2 2.3
2016-Jun-17 10:33N 37°25' E 025°18'2 0.2
2016-Jun-16 20:10N 37°27' E 025°20'5912.3
2016-Jun-16 15:21N 37°36' E 024°06'9 2.3
2016-Jun-16 11:33N 37°39' E 023°56'1212.5
2016-Jun-16 10:33N 37°48' E 023°45'5 4.5
2016-Jun-16 09:33N 37°53' E 023°43'0 0.0
2016-Jun-16 08:33N 37°53' E 023°43'0 0.0
2016-Jun-16 07:33N 37°53' E 023°43'0 0.0
2016-Jun-16 06:33N 37°53' E 023°43'0 0.0
2016-Jun-16 05:33N 37°53' E 023°43'0 0.0
2016-Jun-16 04:33N 37°53' E 023°43'0 0.0
2016-Jun-16 03:33N 37°53' E 023°43'0 0.0
2016-Jun-16 02:33N 37°53' E 023°43'0 0.0
2016-Jun-16 01:33N 37°53' E 023°43'0 0.0
2016-Jun-16 00:33N 37°53' E 023°43'0 0.0
2016-Jun-15 23:33N 37°53' E 023°43'0 0.0
2016-Jun-15 22:33N 37°53' E 023°43'0 0.0
2016-Jun-15 21:33N 37°53' E 023°43'0 0.0
2016-Jun-15 20:33N 37°53' E 023°43'0 0.0
2016-Jun-15 19:33N 37°53' E 023°43'0 0.0
2016-Jun-15 18:33N 37°53' E 023°43'0 0.0
2016-Jun-15 17:33N 37°53' E 023°43'0 0.0
2016-Jun-15 16:33N 37°53' E 023°43'0 0.0
2016-Jun-15 15:33N 37°53' E 023°43'0 0.0
2016-Jun-15 14:33N 37°53' E 023°43'0 0.0
2016-Jun-15 13:33N 37°53' E 023°43'0 0.0
2016-Jun-15 12:33N 37°53' E 023°43'0 0.0
2016-Jun-15 11:33N 37°53' E 023°43'0 0.0
2016-Jun-15 10:33N 37°53' E 023°43'0 0.0
2016-Jun-15 09:33N 37°53' E 023°43'0 0.0
2016-Jun-15 08:33N 37°53' E 023°43'0 0.0
2016-Jun-15 07:33N 37°53' E 023°43'0 0.0
2016-Jun-15 06:33N 37°53' E 023°43'0 0.0
2016-Jun-15 05:33N 37°53' E 023°43'0 0.0
2016-Jun-15 04:33N 37°53' E 023°43'0 0.0
2016-Jun-15 03:33N 37°53' E 023°43'0 0.0
2016-Jun-15 02:33N 37°53' E 023°43'0 0.0
2016-Jun-15 01:33N 37°53' E 023°43'0 0.0
2016-Jun-15 00:33N 37°53' E 023°43'0 0.0
2016-Jun-14 23:33N 37°53' E 023°43'0 0.0
2016-Jun-14 22:33N 37°53' E 023°43'0 0.0
2016-Jun-14 21:33N 37°53' E 023°43'0 0.0
2016-Jun-14 20:33N 37°53' E 023°43'0 0.0
2016-Jun-14 19:33N 37°53' E 023°43'0 0.0
2016-Jun-14 18:33N 37°53' E 023°43'0 0.0
2016-Jun-14 17:33N 37°53' E 023°43'0 0.0
2016-Jun-14 16:33N 37°53' E 023°43'0 0.0
2016-Jun-14 15:33N 37°53' E 023°43'0 0.0
2016-Jun-14 14:33N 37°53' E 023°43'0 0.0
2016-Jun-14 13:33N 37°53' E 023°43'0 0.0
2016-Jun-14 12:33N 37°53' E 023°43'0 0.0
2016-Jun-14 11:33N 37°53' E 023°43'0 0.0
2016-Jun-14 10:33N 37°53' E 023°43'0 0.0
2016-Jun-14 09:33N 37°53' E 023°43'0 0.0
2016-Jun-14 08:33N 37°53' E 023°43'0 0.0
2016-Jun-14 07:33N 37°53' E 023°43'0 0.0
2016-Jun-14 05:33N 37°53' E 023°43'0 0.0
2016-Jun-14 04:33N 37°53' E 023°43'  
Track history (hours):
 
Tides and Currents Weather Stations Pressure Air Temp Water Temp Dewpoint Dewpoint Depression Visibility Wind Speed Wind Dir Waves Ship Positions

Oneiro

Last reported at 2016-Jun-24 04:33 UTC. Time now 2016-Jun-25 07:04 UTC.
Position N 37°09' E 025°15'.

Length 53 m; draft 3 m.

Type: Pleasure craft. MMSI: 241024000.

Date/timePositionNaut miles runAvg speedWind from/ knotsBaromVisibWave heightAir tempDewpointWater temp
2016-Jun-24 04:33N 37°09' E 025°15'2 1.7
2016-Jun-24 03:33N 37°08' E 025°13'0 0.0
2016-Jun-24 02:33N 37°08' E 025°13'0 0.0
2016-Jun-24 01:33N 37°08' E 025°13'0 0.0
2016-Jun-24 00:33N 37°08' E 025°13'0 0.0
2016-Jun-23 23:33N 37°08' E 025°13'0 0.0
2016-Jun-23 22:33N 37°08' E 025°13'0 0.0
2016-Jun-23 21:33N 37°08' E 025°13'0 0.0
2016-Jun-23 20:33N 37°08' E 025°13'0 0.0
2016-Jun-23 19:33N 37°08' E 025°13'0 0.0
2016-Jun-23 18:33N 37°08' E 025°13'0 0.0
2016-Jun-23 17:34N 37°08' E 025°13'0 0.0
2016-Jun-23 16:33N 37°08' E 025°13'1110.7
2016-Jun-23 15:33N 37°18' E 025°15'5 0.8
2016-Jun-23 09:25N 37°23' E 025°14'1 1.4
2016-Jun-23 08:33N 37°23' E 025°16'0 0.0
2016-Jun-23 07:33N 37°23' E 025°16'4 2.0
2016-Jun-23 05:32N 37°27' E 025°18'71 3.5
2016-Jun-22 09:33N 37°43' E 023°51'1211.8
2016-Jun-22 08:33N 37°53' E 023°43'0 0.1
2016-Jun-22 07:33N 37°53' E 023°43'0 0.0
2016-Jun-22 06:33N 37°53' E 023°43'0 0.0
2016-Jun-22 05:33N 37°53' E 023°43'0 0.0
2016-Jun-22 04:33N 37°53' E 023°43'0 0.0
2016-Jun-22 03:33N 37°53' E 023°43'0 0.0
2016-Jun-22 02:33N 37°53' E 023°43'0 0.0
2016-Jun-22 01:33N 37°53' E 023°43'0 0.0
2016-Jun-22 00:33N 37°53' E 023°43'0 0.0
2016-Jun-21 23:33N 37°53' E 023°43'0 0.0
2016-Jun-21 22:33N 37°53' E 023°43'0 0.0
2016-Jun-21 21:33N 37°53' E 023°43'0 0.0
2016-Jun-21 20:33N 37°53' E 023°43'0 0.0
2016-Jun-21 19:33N 37°53' E 023°43'0 0.0
2016-Jun-21 18:33N 37°53' E 023°43'0 0.0
2016-Jun-21 17:33N 37°53' E 023°43'0 0.0
2016-Jun-21 16:33N 37°53' E 023°43'0 0.0
2016-Jun-21 15:33N 37°53' E 023°43'0 0.0
2016-Jun-21 14:33N 37°53' E 023°43'0 0.0
2016-Jun-21 13:33N 37°53' E 023°43'0 0.0
2016-Jun-21 12:33N 37°53' E 023°43'0 0.0
2016-Jun-21 11:33N 37°53' E 023°43'0 0.0
2016-Jun-21 10:33N 37°53' E 023°43'0 0.0
2016-Jun-21 09:33N 37°53' E 023°43'0 0.0
2016-Jun-21 08:33N 37°53' E 023°43'0 0.0
2016-Jun-21 07:33N 37°53' E 023°43'3210.7
2016-Jun-21 04:33N 37°23' E 023°29'2 1.9
2016-Jun-21 03:33N 37°21' E 023°28'0 0.0
2016-Jun-21 02:33N 37°21' E 023°28'0 0.0
2016-Jun-21 01:33N 37°21' E 023°28'0 0.0
2016-Jun-21 00:33N 37°21' E 023°28'0 0.0
2016-Jun-20 23:33N 37°21' E 023°28'0 0.0
2016-Jun-20 22:32N 37°21' E 023°28'0 0.0
2016-Jun-20 21:32N 37°21' E 023°28'0 0.0
2016-Jun-20 20:33N 37°21' E 023°28'0 0.0
2016-Jun-20 19:33N 37°21' E 023°28'0 0.0
2016-Jun-20 18:33N 37°21' E 023°28'0 0.0
2016-Jun-20 17:33N 37°21' E 023°28'0 0.0
2016-Jun-20 16:33N 37°21' E 023°28'0 0.0
2016-Jun-20 15:32N 37°21' E 023°28'0 0.0
2016-Jun-20 14:33N 37°21' E 023°28'9 1.1
2016-Jun-20 06:27N 37°13' E 023°32'64 2.4
2016-Jun-19 03:30N 37°11' E 024°53'15 0.4
2016-Jun-17 15:11N 37°23' E 025°03'813.3
2016-Jun-17 14:33N 37°21' E 025°13'7 6.7
2016-Jun-17 13:33N 37°25' E 025°21'0 0.0
2016-Jun-17 12:24N 37°25' E 025°21'0 0.0
2016-Jun-17 11:33N 37°25' E 025°21'2 2.3
2016-Jun-17 10:33N 37°25' E 025°18'2 0.2
2016-Jun-16 20:10N 37°27' E 025°20'5912.3
2016-Jun-16 15:21N 37°36' E 024°06'9 2.3
2016-Jun-16 11:33N 37°39' E 023°56'1212.5
2016-Jun-16 10:33N 37°48' E 023°45'5 4.5
2016-Jun-16 09:33N 37°53' E 023°43'0 0.0
2016-Jun-16 08:33N 37°53' E 023°43'0 0.0
2016-Jun-16 07:33N 37°53' E 023°43'0 0.0
2016-Jun-16 06:33N 37°53' E 023°43'0 0.0
2016-Jun-16 05:33N 37°53' E 023°43'0 0.0
2016-Jun-16 04:33N 37°53' E 023°43'0 0.0
2016-Jun-16 03:33N 37°53' E 023°43'0 0.0
2016-Jun-16 02:33N 37°53' E 023°43'0 0.0
2016-Jun-16 01:33N 37°53' E 023°43'0 0.0
2016-Jun-16 00:33N 37°53' E 023°43'0 0.0
2016-Jun-15 23:33N 37°53' E 023°43'0 0.0
2016-Jun-15 22:33N 37°53' E 023°43'0 0.0
2016-Jun-15 21:33N 37°53' E 023°43'0 0.0
2016-Jun-15 20:33N 37°53' E 023°43'0 0.0
2016-Jun-15 19:33N 37°53' E 023°43'0 0.0
2016-Jun-15 18:33N 37°53' E 023°43'0 0.0
2016-Jun-15 17:33N 37°53' E 023°43'0 0.0
2016-Jun-15 16:33N 37°53' E 023°43'0 0.0
2016-Jun-15 15:33N 37°53' E 023°43'0 0.0
2016-Jun-15 14:33N 37°53' E 023°43'0 0.0
2016-Jun-15 13:33N 37°53' E 023°43'0 0.0
2016-Jun-15 12:33N 37°53' E 023°43'0 0.0
2016-Jun-15 11:33N 37°53' E 023°43'0 0.0
2016-Jun-15 10:33N 37°53' E 023°43'0 0.0
2016-Jun-15 09:33N 37°53' E 023°43'0 0.0
2016-Jun-15 08:33N 37°53' E 023°43'0 0.0
2016-Jun-15 07:33N 37°53' E 023°43'0 0.0
2016-Jun-15 06:33N 37°53' E 023°43'0 0.0
2016-Jun-15 05:33N 37°53' E 023°43'0 0.0
2016-Jun-15 04:33N 37°53' E 023°43'0 0.0
2016-Jun-15 03:33N 37°53' E 023°43'0 0.0
2016-Jun-15 02:33N 37°53' E 023°43'0 0.0
2016-Jun-15 01:33N 37°53' E 023°43'0 0.0
2016-Jun-15 00:33N 37°53' E 023°43'0 0.0
2016-Jun-14 23:33N 37°53' E 023°43'0 0.0
2016-Jun-14 22:33N 37°53' E 023°43'0 0.0
2016-Jun-14 21:33N 37°53' E 023°43'0 0.0
2016-Jun-14 20:33N 37°53' E 023°43'0 0.0
2016-Jun-14 19:33N 37°53' E 023°43'0 0.0
2016-Jun-14 18:33N 37°53' E 023°43'0 0.0
2016-Jun-14 17:33N 37°53' E 023°43'0 0.0
2016-Jun-14 16:33N 37°53' E 023°43'0 0.0
2016-Jun-14 15:33N 37°53' E 023°43'0 0.0
2016-Jun-14 14:33N 37°53' E 023°43'0 0.0
2016-Jun-14 13:33N 37°53' E 023°43'0 0.0
2016-Jun-14 12:33N 37°53' E 023°43'0 0.0
2016-Jun-14 11:33N 37°53' E 023°43'0 0.0
2016-Jun-14 10:33N 37°53' E 023°43'0 0.0
2016-Jun-14 09:33N 37°53' E 023°43'0 0.0
2016-Jun-14 08:33N 37°53' E 023°43'0 0.0
2016-Jun-14 07:33N 37°53' E 023°43'0 0.0
2016-Jun-14 05:33N 37°53' E 023°43'0 0.0
2016-Jun-14 04:33N 37°53' E 023°43'  

Dump ship's entire track history